createdAt,value
2019-01-09T00:01:26.872Z,57.02
2019-01-09T00:03:57.171Z,57.10
2019-01-09T00:06:27.914Z,57.04
2019-01-09T00:08:58.664Z,56.75
2019-01-09T00:11:29.044Z,56.89
2019-01-09T00:13:59.578Z,56.68
2019-01-09T00:16:30.000Z,56.16
2019-01-09T00:19:00.273Z,56.56
2019-01-09T00:21:30.620Z,56.02
2019-01-09T00:24:01.314Z,55.81
2019-01-09T00:26:31.724Z,55.77
2019-01-09T00:29:02.048Z,55.62
2019-01-09T00:31:32.814Z,55.45
2019-01-09T00:34:03.324Z,55.00
2019-01-09T00:36:35.209Z,55.19
2019-01-09T00:39:07.241Z,54.87
2019-01-09T00:41:37.620Z,54.74
2019-01-09T00:44:08.427Z,54.12
2019-01-09T00:46:38.741Z,54.22
2019-01-09T00:49:09.050Z,54.42
2019-01-09T00:51:41.064Z,54.26
2019-01-09T00:54:11.627Z,53.95
2019-01-09T00:56:42.218Z,53.73
2019-01-09T00:59:13.084Z,53.40
2019-01-09T01:01:49.772Z,53.41
2019-01-09T01:04:55.264Z,53.32
2019-01-09T01:08:24.503Z,52.98
2019-01-09T01:11:27.320Z,53.15
2019-01-09T01:14:37.478Z,53.17
2019-01-09T01:17:44.121Z,53.17
2019-01-09T01:20:43.995Z,53.80
2019-01-09T01:24:08.700Z,53.88
2019-01-09T01:26:54.336Z,54.80
2019-01-09T01:30:00.646Z,53.83
2019-01-09T01:33:01.778Z,53.78
2019-01-09T01:36:27.030Z,53.59
2019-01-09T01:39:53.122Z,54.20
2019-01-09T01:43:01.490Z,54.16
2019-01-09T01:45:49.211Z,54.07
2019-01-09T01:49:18.811Z,54.10
2019-01-09T01:52:33.330Z,54.01
2019-01-09T01:55:34.903Z,54.22
2019-01-09T01:58:49.991Z,54.09
2019-01-09T02:01:47.070Z,53.77
2019-01-09T02:04:42.742Z,54.19
2019-01-09T02:07:56.070Z,54.02
2019-01-09T02:11:22.826Z,54.11
2019-01-09T02:14:43.500Z,54.42
2019-01-09T02:17:57.145Z,55.21
2019-01-09T02:20:59.525Z,55.59
2019-01-09T02:24:17.027Z,55.59
2019-01-09T02:27:24.650Z,55.61
2019-01-09T02:30:31.580Z,56.17
2019-01-09T02:33:02.298Z,56.70
2019-01-09T02:35:32.969Z,56.87
2019-01-09T02:38:03.559Z,57.63
2019-01-09T02:40:33.877Z,58.20
2019-01-09T02:43:04.565Z,57.64
2019-01-09T02:45:35.153Z,58.36
2019-01-09T02:48:05.433Z,57.82
2019-01-09T02:50:36.163Z,58.04
2019-01-09T02:53:06.611Z,59.01
2019-01-09T02:55:36.943Z,60.01
2019-01-09T02:58:08.682Z,59.25
2019-01-09T03:00:39.042Z,60.17
2019-01-09T03:03:09.809Z,60.48
2019-01-09T03:05:40.143Z,59.75
2019-01-09T03:08:10.435Z,60.02
2019-01-09T03:10:41.136Z,60.19
2019-01-09T03:13:11.577Z,60.12
2019-01-09T03:15:42.078Z,61.22
2019-01-09T03:18:12.453Z,61.04
2019-01-09T03:20:43.057Z,61.41
2019-01-09T03:23:13.378Z,61.16
2019-01-09T03:25:44.194Z,61.62
2019-01-09T03:28:14.844Z,62.11
2019-01-09T03:30:46.441Z,62.44
2019-01-09T03:33:16.727Z,62.13
2019-01-09T03:35:47.279Z,62.14
2019-01-09T03:38:17.646Z,62.42
2019-01-09T03:40:48.380Z,62.25
2019-01-09T03:43:18.648Z,62.09
2019-01-09T03:45:49.078Z,61.25
2019-01-09T03:48:19.435Z,61.76
2019-01-09T03:50:49.785Z,62.76
2019-01-09T03:53:20.223Z,62.69
2019-01-09T03:55:50.813Z,63.13
2019-01-09T03:58:21.108Z,63.17
2019-01-09T04:00:51.460Z,63.33
2019-01-09T04:03:24.230Z,62.77
2019-01-09T04:05:54.317Z,63.15
2019-01-09T04:08:25.108Z,63.14
2019-01-09T04:10:55.423Z,62.97
2019-01-09T04:13:25.863Z,62.88
2019-01-09T04:15:56.459Z,63.12
2019-01-09T04:18:26.785Z,63.36
2019-01-09T04:20:57.439Z,62.98
2019-01-09T04:23:28.129Z,63.87
2019-01-09T04:25:58.723Z,63.84
2019-01-09T04:28:29.050Z,63.81
2019-01-09T04:31:01.019Z,63.62
2019-01-09T04:33:32.539Z,63.68
2019-01-09T04:36:03.051Z,65.02
2019-01-09T04:38:33.729Z,64.67
2019-01-09T04:41:04.523Z,64.54
2019-01-09T04:43:34.827Z,65.90
2019-01-09T04:46:06.366Z,66.30
2019-01-09T04:48:36.891Z,65.88
2019-01-09T04:51:07.302Z,66.25
2019-01-09T04:53:37.770Z,65.26
2019-01-09T04:56:08.673Z,64.74
2019-01-09T04:58:38.968Z,64.54
2019-01-09T05:01:09.314Z,65.05
2019-01-09T05:03:40.129Z,65.05
2019-01-09T05:06:10.508Z,65.00
2019-01-09T05:08:41.234Z,64.72
2019-01-09T05:11:11.689Z,64.81
2019-01-09T05:13:42.028Z,65.08
2019-01-09T05:16:12.443Z,66.35
2019-01-09T05:18:42.739Z,65.77
2019-01-09T05:21:13.257Z,65.82
2019-01-09T05:23:43.915Z,65.29
2019-01-09T05:26:14.252Z,65.98
2019-01-09T05:28:44.530Z,65.48
2019-01-09T05:31:15.132Z,66.40
2019-01-09T05:33:45.767Z,66.37
2019-01-09T05:36:16.276Z,68.07
2019-01-09T05:38:47.118Z,68.45
2019-01-09T05:41:17.592Z,69.00
2019-01-09T05:43:48.092Z,68.62
2019-01-09T05:46:18.412Z,68.33
2019-01-09T05:48:48.722Z,69.75
2019-01-09T05:51:19.490Z,70.39
2019-01-09T05:53:50.053Z,70.95
2019-01-09T05:56:20.371Z,70.50
2019-01-09T05:58:51.070Z,70.56
2019-01-09T06:01:21.684Z,70.96
2019-01-09T06:03:51.971Z,71.21
2019-01-09T06:06:22.903Z,71.90
2019-01-09T06:08:53.681Z,73.22
2019-01-09T06:11:24.139Z,73.89
2019-01-09T06:13:54.467Z,74.46
2019-01-09T06:16:24.792Z,74.72
2019-01-09T06:18:55.476Z,74.66
2019-01-09T06:21:26.197Z,74.42
2019-01-09T06:23:56.489Z,74.15
2019-01-09T06:26:27.306Z,73.66
2019-01-09T06:28:57.992Z,74.43
2019-01-09T06:31:29.299Z,74.93
2019-01-09T06:33:59.764Z,74.79
2019-01-09T06:36:30.634Z,74.47
2019-01-09T06:39:00.977Z,74.97
2019-01-09T06:41:31.612Z,75.19
2019-01-09T06:44:02.183Z,75.33
2019-01-09T06:46:33.316Z,75.23
2019-01-09T06:49:03.694Z,75.27
2019-01-09T06:51:34.174Z,75.14
2019-01-09T06:54:04.665Z,74.84
2019-01-09T06:56:36.315Z,74.59
2019-01-09T06:59:06.580Z,74.40
2019-01-09T07:01:37.091Z,74.39
2019-01-09T07:04:07.710Z,74.14
2019-01-09T07:06:38.017Z,73.78
2019-01-09T07:09:08.367Z,73.63
2019-01-09T07:11:39.042Z,73.03
2019-01-09T07:14:10.314Z,72.60
2019-01-09T07:16:40.923Z,71.57
2019-01-09T07:19:11.486Z,71.06
2019-01-09T07:21:45.678Z,71.00
2019-01-09T07:24:15.420Z,70.71
2019-01-09T07:26:45.735Z,70.43
2019-01-09T07:29:16.323Z,69.11
2019-01-09T07:31:46.877Z,68.46
2019-01-09T07:34:17.202Z,68.22
2019-01-09T07:36:47.494Z,67.65
2019-01-09T07:39:17.908Z,67.35
2019-01-09T07:41:48.251Z,66.76
2019-01-09T07:44:18.568Z,65.90
2019-01-09T07:46:49.545Z,64.61
2019-01-09T07:49:19.853Z,63.97
2019-01-09T07:51:50.694Z,63.24
2019-01-09T07:54:21.102Z,62.81
2019-01-09T07:56:51.851Z,61.94
2019-01-09T07:59:22.493Z,60.71
2019-01-09T08:01:53.018Z,59.96
2019-01-09T08:04:23.325Z,59.91
2019-01-09T08:06:54.030Z,58.75
2019-01-09T08:09:24.430Z,58.25
2019-01-09T08:11:54.691Z,57.55
2019-01-09T08:14:25.109Z,57.30
2019-01-09T08:16:55.783Z,55.39
2019-01-09T08:19:26.247Z,55.45
2019-01-09T08:21:56.649Z,54.04
2019-01-09T08:24:27.094Z,54.22
2019-01-09T08:26:57.727Z,54.34
2019-01-09T08:29:29.485Z,54.29
2019-01-09T08:31:59.803Z,52.14
2019-01-09T08:34:30.459Z,53.12
2019-01-09T08:37:01.060Z,53.83
2019-01-09T08:39:31.400Z,54.00
2019-01-09T08:42:01.964Z,53.85
2019-01-09T08:44:32.735Z,52.93
2019-01-09T08:47:03.180Z,52.72
2019-01-09T08:49:33.491Z,53.64
2019-01-09T08:52:04.405Z,54.36
2019-01-09T08:54:34.784Z,53.59
2019-01-09T08:57:05.163Z,54.77
2019-01-09T08:59:35.825Z,54.18
2019-01-09T09:02:06.316Z,54.53
2019-01-09T09:04:36.625Z,54.31
2019-01-09T09:07:07.514Z,55.01
2019-01-09T09:09:38.146Z,55.34
2019-01-09T09:12:08.419Z,54.09
2019-01-09T09:14:39.106Z,54.61
2019-01-09T09:17:09.832Z,54.38
2019-01-09T09:19:40.139Z,53.82
2019-01-09T09:22:10.799Z,53.64
2019-01-09T09:24:41.141Z,53.90
2019-01-09T09:27:11.671Z,54.01
2019-01-09T09:29:42.298Z,54.37
2019-01-09T09:32:12.695Z,53.79
2019-01-09T09:34:43.392Z,53.59
2019-01-09T09:37:14.149Z,53.75
2019-01-09T09:39:44.530Z,53.30
2019-01-09T09:42:14.911Z,52.84
2019-01-09T09:44:45.463Z,52.38
2019-01-09T09:47:15.811Z,52.01
2019-01-09T09:49:46.217Z,51.79
2019-01-09T09:52:16.889Z,51.80
2019-01-09T09:54:47.193Z,51.71
2019-01-09T09:57:17.894Z,51.27
2019-01-09T09:59:48.180Z,51.72
2019-01-09T10:02:18.601Z,50.61
2019-01-09T10:04:49.299Z,49.31
2019-01-09T10:07:19.630Z,49.70
2019-01-09T10:09:49.978Z,48.60
2019-01-09T10:12:20.686Z,49.39
2019-01-09T10:14:50.981Z,49.60
2019-01-09T10:17:21.450Z,48.66
2019-01-09T10:19:52.130Z,49.37
2019-01-09T10:22:22.591Z,49.95
2019-01-09T10:24:52.894Z,48.92
2019-01-09T10:27:23.478Z,49.56
2019-01-09T10:29:53.861Z,49.37
2019-01-09T10:32:24.515Z,49.85
2019-01-09T10:34:54.988Z,50.36
2019-01-09T10:37:25.302Z,50.89
2019-01-09T10:39:55.716Z,50.97
2019-01-09T10:42:26.038Z,49.97
2019-01-09T10:44:56.373Z,50.08
2019-01-09T10:47:27.813Z,50.07
2019-01-09T10:49:58.211Z,51.04
2019-01-09T10:52:28.565Z,51.18
2019-01-09T10:54:59.227Z,50.36
2019-01-09T10:57:30.072Z,51.01
2019-01-09T11:00:00.361Z,51.00
2019-01-09T11:02:31.156Z,52.11
2019-01-09T11:05:01.467Z,51.48
2019-01-09T11:07:32.202Z,52.43
2019-01-09T11:10:02.543Z,53.29
2019-01-09T11:12:32.867Z,54.52
2019-01-09T11:15:03.555Z,55.56
2019-01-09T11:17:34.254Z,56.24
2019-01-09T11:20:05.721Z,57.58
2019-01-09T11:22:36.233Z,56.82
2019-01-09T11:25:08.497Z,56.16
2019-01-09T11:27:38.980Z,58.32
2019-01-09T11:30:12.009Z,57.21
2019-01-09T11:32:42.608Z,56.69
2019-01-09T11:35:14.360Z,57.68
2019-01-09T11:37:44.741Z,58.12
2019-01-09T11:40:16.518Z,59.04
2019-01-09T11:42:47.083Z,59.27
2019-01-09T11:45:18.817Z,59.39
2019-01-09T11:48:42.560Z,58.84
2019-01-09T11:51:12.885Z,58.04
2019-01-09T11:53:43.561Z,58.73
2019-01-09T11:56:13.829Z,58.99
2019-01-09T11:58:44.174Z,59.79
2019-01-09T12:01:14.828Z,59.41
2019-01-09T12:03:45.248Z,60.28
2019-01-09T12:06:15.625Z,61.25
2019-01-09T12:08:45.935Z,61.88
2019-01-09T12:11:16.231Z,62.00
2019-01-09T12:13:46.883Z,63.15
2019-01-09T12:16:17.250Z,63.72
2019-01-09T12:19:23.741Z,63.97
2019-01-09T12:21:54.156Z,64.42
2019-01-09T12:24:24.545Z,64.93
2019-01-09T12:26:54.873Z,63.59
2019-01-09T12:29:25.589Z,64.91
2019-01-09T12:31:56.414Z,65.45
2019-01-09T12:34:26.698Z,65.17
2019-01-09T12:36:57.685Z,64.69
2019-01-09T12:39:27.978Z,65.13
2019-01-09T12:41:58.527Z,65.03
2019-01-09T12:44:29.077Z,64.62
2019-01-09T12:46:59.404Z,64.81
2019-01-09T12:49:30.135Z,65.30
2019-01-09T12:52:00.870Z,65.44
2019-01-09T12:54:31.187Z,65.19
2019-01-09T12:57:01.697Z,65.54
2019-01-09T12:59:32.463Z,66.09
2019-01-09T13:02:02.867Z,65.38
2019-01-09T13:04:33.318Z,65.60
2019-01-09T13:07:04.114Z,65.52
2019-01-09T13:09:34.421Z,65.11
2019-01-09T13:12:04.824Z,64.82
2019-01-09T13:14:35.379Z,64.87
2019-01-09T13:17:11.867Z,64.58
2019-01-09T13:19:37.878Z,64.23
2019-01-09T13:22:08.634Z,64.48
2019-01-09T13:24:39.318Z,64.97
2019-01-09T13:27:09.597Z,65.37
2019-01-09T13:29:40.264Z,66.00
2019-01-09T13:32:11.034Z,65.93
2019-01-09T13:34:41.384Z,66.03
2019-01-09T13:37:12.099Z,66.31
2019-01-09T13:39:42.509Z,66.58
2019-01-09T13:42:12.799Z,67.02
2019-01-09T13:44:43.381Z,67.19
2019-01-09T13:47:13.772Z,67.53
2019-01-09T13:49:44.513Z,67.63
2019-01-09T13:52:15.183Z,68.16
2019-01-09T13:54:45.788Z,68.44
2019-01-09T13:57:16.442Z,69.62
2019-01-09T13:59:47.007Z,69.78
2019-01-09T14:02:17.294Z,70.08
2019-01-09T14:04:47.826Z,70.08
2019-01-09T14:07:18.506Z,69.76
2019-01-09T14:09:48.826Z,68.53
2019-01-09T14:12:19.210Z,68.98
2019-01-09T14:14:49.745Z,69.26
2019-01-09T14:17:20.501Z,69.58
2019-01-09T14:19:51.154Z,69.91
2019-01-09T14:22:21.490Z,69.57
2019-01-09T14:24:51.887Z,70.23
2019-01-09T14:27:22.404Z,70.18
2019-01-09T14:29:52.708Z,70.16
2019-01-09T14:32:23.039Z,69.09
2019-01-09T14:34:53.775Z,69.31
2019-01-09T14:37:24.106Z,69.86
2019-01-09T14:39:54.482Z,69.80
2019-01-09T14:42:25.172Z,69.99
2019-01-09T14:44:55.737Z,70.35
2019-01-09T14:47:26.218Z,70.30
2019-01-09T14:49:56.627Z,70.67
2019-01-09T14:52:27.025Z,71.87
2019-01-09T14:54:57.606Z,71.12
2019-01-09T14:57:28.046Z,71.00
2019-01-09T14:59:58.393Z,70.91
2019-01-09T15:02:29.098Z,69.82
2019-01-09T15:04:59.711Z,70.86
2019-01-09T15:07:30.319Z,70.29
2019-01-09T15:10:00.663Z,70.72
2019-01-09T15:12:31.364Z,70.45
2019-01-09T15:15:01.740Z,70.25
2019-01-09T15:17:32.430Z,69.75
2019-01-09T15:20:02.805Z,70.30
2019-01-09T15:22:33.645Z,70.53
2019-01-09T15:25:05.656Z,69.40
2019-01-09T15:27:35.976Z,69.98
2019-01-09T15:30:09.905Z,69.78
2019-01-09T15:32:40.265Z,69.44
2019-01-09T15:35:11.340Z,70.43
2019-01-09T15:37:41.692Z,69.77
2019-01-09T15:40:15.416Z,69.03
2019-01-09T15:42:45.648Z,69.08
2019-01-09T15:45:16.287Z,69.14
2019-01-09T15:47:46.788Z,69.13
2019-01-09T15:50:18.678Z,68.78
2019-01-09T15:52:49.343Z,69.02
2019-01-09T15:55:19.760Z,69.16
2019-01-09T15:57:52.621Z,68.39
2019-01-09T16:00:29.063Z,67.60
2019-01-09T16:02:59.569Z,68.12
2019-01-09T16:05:30.140Z,67.61
2019-01-09T16:08:01.031Z,68.67
2019-01-09T16:10:31.355Z,68.52
2019-01-09T16:13:01.763Z,68.98
2019-01-09T16:15:32.470Z,69.66
2019-01-09T16:18:02.781Z,69.67
2019-01-09T16:20:33.460Z,70.08
2019-01-09T16:23:04.296Z,70.16
2019-01-09T16:25:34.880Z,69.97
2019-01-09T16:28:06.364Z,69.39
2019-01-09T16:31:39.301Z,70.07
2019-01-09T16:34:09.592Z,70.41
2019-01-09T16:36:40.532Z,70.58
2019-01-09T16:39:11.555Z,69.89
2019-01-09T16:41:41.913Z,69.72
2019-01-09T16:44:12.547Z,70.11
2019-01-09T16:46:43.091Z,70.16
2019-01-09T16:49:13.453Z,70.68
2019-01-09T16:51:44.167Z,70.76
2019-01-09T16:54:14.875Z,70.72
2019-01-09T16:56:45.555Z,70.37
2019-01-09T16:59:15.849Z,70.67
2019-01-09T17:01:46.632Z,70.77
2019-01-09T17:04:17.001Z,70.30
2019-01-09T17:06:47.787Z,71.13
2019-01-09T17:09:18.087Z,71.21
2019-01-09T17:11:48.975Z,71.23
2019-01-09T17:14:19.624Z,71.90
2019-01-09T17:16:50.330Z,70.85
2019-01-09T17:19:21.208Z,71.87
2019-01-09T17:21:51.983Z,70.78
2019-01-09T17:24:22.297Z,70.13
2019-01-09T17:26:53.493Z,70.03
2019-01-09T17:29:24.240Z,70.23
2019-01-09T17:31:54.523Z,70.47
2019-01-09T17:34:24.822Z,70.51
2019-01-09T17:36:55.708Z,70.36
2019-01-09T17:39:26.066Z,69.60
2019-01-09T17:41:56.518Z,70.27
2019-01-09T17:44:27.430Z,69.38
2019-01-09T17:46:58.454Z,69.30
2019-01-09T17:49:29.261Z,69.49
2019-01-09T17:52:00.010Z,69.74
2019-01-09T17:54:30.910Z,70.51
2019-01-09T17:57:01.491Z,70.70
2019-01-09T17:59:33.311Z,70.32
2019-01-09T18:02:03.973Z,69.99
2019-01-09T18:04:34.738Z,69.47
2019-01-09T18:07:05.364Z,69.87
2019-01-09T18:09:35.639Z,71.06
2019-01-09T18:12:06.941Z,71.12
2019-01-09T18:14:37.548Z,71.70
2019-01-09T18:17:08.068Z,72.16
2019-01-09T18:19:38.628Z,72.14
2019-01-09T18:22:09.277Z,72.14
2019-01-09T18:24:39.746Z,71.27
2019-01-09T18:27:10.097Z,71.76
2019-01-09T18:29:40.807Z,72.13
2019-01-09T18:32:37.424Z,72.82
2019-01-09T18:35:44.378Z,71.99
2019-01-09T18:38:55.828Z,72.57
2019-01-09T18:42:22.372Z,73.40
2019-01-09T18:45:04.577Z,74.12
2019-01-09T18:48:14.450Z,74.26
2019-01-09T18:51:28.739Z,74.22
2019-01-09T18:53:59.517Z,74.29
2019-01-09T18:56:29.896Z,74.58
2019-01-09T18:59:00.350Z,74.67
2019-01-09T19:01:31.573Z,75.08
2019-01-09T19:04:01.938Z,75.10
2019-01-09T19:06:35.504Z,75.25
2019-01-09T19:09:07.430Z,74.58
2019-01-09T19:11:38.095Z,75.06
2019-01-09T19:14:08.499Z,74.84
2019-01-09T19:16:39.042Z,74.49
2019-01-09T19:19:09.356Z,74.59
2019-01-09T19:21:39.963Z,74.38
2019-01-09T19:24:10.468Z,74.26
2019-01-09T19:26:40.800Z,74.71
2019-01-09T19:29:13.095Z,73.83
2019-01-09T19:31:43.902Z,74.17
2019-01-09T19:34:14.204Z,74.45
2019-01-09T19:36:45.113Z,74.35
2019-01-09T19:39:15.580Z,74.31
2019-01-09T19:41:46.044Z,74.62
2019-01-09T19:44:16.424Z,74.33
2019-01-09T19:46:46.750Z,73.94
2019-01-09T19:49:17.499Z,74.38
2019-01-09T19:51:47.863Z,74.33
2019-01-09T19:54:18.299Z,74.87
2019-01-09T19:56:49.029Z,74.50
2019-01-09T19:59:19.847Z,74.02
2019-01-09T20:01:50.290Z,73.72
2019-01-09T20:04:21.124Z,74.11
2019-01-09T20:06:51.793Z,74.34
2019-01-09T20:09:22.306Z,74.03
2019-01-09T20:11:53.018Z,74.46
2019-01-09T20:14:23.659Z,74.13
2019-01-09T20:16:54.559Z,73.22
2019-01-09T20:19:25.248Z,72.80
2019-01-09T20:21:55.681Z,73.30
2019-01-09T20:24:26.603Z,72.69
2019-01-09T20:26:57.311Z,72.91
2019-01-09T20:29:27.615Z,73.49
2019-01-09T20:31:57.996Z,72.85
2019-01-09T20:34:28.754Z,73.86
2019-01-09T20:37:00.170Z,74.20
2019-01-09T20:39:30.713Z,74.32
2019-01-09T20:42:01.467Z,74.89
2019-01-09T20:44:31.878Z,74.94
2019-01-09T20:47:02.558Z,75.12
2019-01-09T20:49:33.019Z,75.33
2019-01-09T20:52:04.810Z,75.64
2019-01-09T20:54:35.412Z,75.42
2019-01-09T20:57:07.687Z,75.73
2019-01-09T20:59:37.977Z,75.75
2019-01-09T21:02:08.627Z,75.79
2019-01-09T21:04:39.168Z,76.15
2019-01-09T21:07:09.698Z,76.76
2019-01-09T21:09:40.698Z,76.77
2019-01-09T21:12:11.328Z,77.26
2019-01-09T21:14:41.772Z,77.15
2019-01-09T21:17:12.452Z,77.64
2019-01-09T21:19:42.820Z,77.60
2019-01-09T21:22:15.038Z,77.30
2019-01-09T21:24:45.536Z,77.23
2019-01-09T21:27:15.854Z,77.31
2019-01-09T21:29:46.547Z,77.56
2019-01-09T21:32:17.111Z,77.42
2019-01-09T21:34:47.496Z,78.33
2019-01-09T21:37:18.185Z,77.61
2019-01-09T21:39:48.925Z,77.90
2019-01-09T21:42:20.228Z,77.80
2019-01-09T21:44:50.896Z,77.71
2019-01-09T21:47:21.797Z,77.56
2019-01-09T21:49:52.281Z,76.56
2019-01-09T21:52:22.664Z,77.05
2019-01-09T21:54:53.340Z,77.08
2019-01-09T21:57:23.638Z,76.92
2019-01-09T21:59:53.931Z,76.61
2019-01-09T22:02:24.480Z,75.89
2019-01-09T22:04:54.789Z,75.89
2019-01-09T22:07:25.196Z,75.51
2019-01-09T22:09:55.852Z,74.92
2019-01-09T22:12:27.448Z,75.21
2019-01-09T22:14:57.748Z,74.77
2019-01-09T22:17:28.461Z,75.15
2019-01-09T22:19:59.202Z,74.85
2019-01-09T22:22:29.731Z,74.59
2019-01-09T22:25:00.023Z,73.62
2019-01-09T22:27:30.326Z,73.54
2019-01-09T22:30:01.308Z,73.03
2019-01-09T22:32:31.714Z,73.72
2019-01-09T22:35:02.063Z,72.79
2019-01-09T22:37:32.802Z,72.48
2019-01-09T22:40:03.993Z,72.54
2019-01-09T22:42:34.229Z,72.16
2019-01-09T22:45:06.331Z,72.49
2019-01-09T22:47:36.980Z,73.49
2019-01-09T22:50:09.463Z,73.95
2019-01-09T22:52:39.987Z,73.10
2019-01-09T22:55:11.146Z,73.18
2019-01-09T22:57:41.530Z,73.42
2019-01-09T23:00:59.878Z,73.57
2019-01-09T23:03:31.937Z,74.34
2019-01-09T23:06:02.550Z,74.13
2019-01-09T23:08:33.232Z,74.21
2019-01-09T23:11:03.587Z,74.77
2019-01-09T23:13:34.319Z,75.36
2019-01-09T23:16:05.609Z,75.46
2019-01-09T23:18:36.066Z,75.64
2019-01-09T23:21:06.774Z,75.69
2019-01-09T23:23:37.318Z,75.89
2019-01-09T23:26:07.928Z,75.76
2019-01-09T23:28:38.343Z,74.67
2019-01-09T23:31:09.609Z,75.01
2019-01-09T23:33:40.021Z,74.66
2019-01-09T23:36:10.903Z,74.70
2019-01-09T23:38:41.205Z,74.31
2019-01-09T23:41:12.047Z,73.02
2019-01-09T23:43:42.795Z,73.36
2019-01-09T23:46:13.341Z,73.80
2019-01-09T23:48:43.641Z,74.09
2019-01-09T23:51:14.447Z,74.42
2019-01-09T23:53:44.975Z,74.35
2019-01-09T23:56:15.316Z,74.52
2019-01-09T23:58:45.930Z,73.55
